sensor_id;sensor_type;location;lat;lon;timestamp;P1;durP1;ratioP1;P2;durP2;ratioP2
75912;SDS011;64592;52.168;21.040;2024-02-21T00:01:05;8.52;;;3.92;;
75912;SDS011;64592;52.168;21.040;2024-02-21T00:06:07;9.40;;;4.10;;
75912;SDS011;64592;52.168;21.040;2024-02-21T00:11:10;9.77;;;3.75;;
75912;SDS011;64592;52.168;21.040;2024-02-21T00:16:12;7.35;;;3.42;;
75912;SDS011;64592;52.168;21.040;2024-02-21T00:21:15;12.25;;;4.40;;
75912;SDS011;64592;52.168;21.040;2024-02-21T00:26:20;9.85;;;4.28;;
75912;SDS011;64592;52.168;21.040;2024-02-21T00:31:21;7.30;;;3.70;;
75912;SDS011;64592;52.168;21.040;2024-02-21T00:36:23;12.68;;;4.13;;
75912;SDS011;64592;52.168;21.040;2024-02-21T00:41:26;9.73;;;4.25;;
75912;SDS011;64592;52.168;21.040;2024-02-21T00:46:28;11.23;;;4.70;;
75912;SDS011;64592;52.168;21.040;2024-02-21T00:51:29;8.98;;;4.00;;
75912;SDS011;64592;52.168;21.040;2024-02-21T00:56:32;7.60;;;3.60;;
75912;SDS011;64592;52.168;21.040;2024-02-21T01:01:34;7.68;;;3.85;;
75912;SDS011;64592;52.168;21.040;2024-02-21T01:06:36;12.68;;;4.20;;
75912;SDS011;64592;52.168;21.040;2024-02-21T01:11:39;12.05;;;3.05;;
75912;SDS011;64592;52.168;21.040;2024-02-21T01:16:40;9.32;;;4.15;;
75912;SDS011;64592;52.168;21.040;2024-02-21T01:21:42;14.00;;;4.63;;
75912;SDS011;64592;52.168;21.040;2024-02-21T01:26:45;15.50;;;5.25;;
75912;SDS011;64592;52.168;21.040;2024-02-21T01:31:47;7.70;;;3.83;;
75912;SDS011;64592;52.168;21.040;2024-02-21T01:36:49;11.15;;;4.35;;
75912;SDS011;64592;52.168;21.040;2024-02-21T01:41:52;9.02;;;3.95;;
75912;SDS011;64592;52.168;21.040;2024-02-21T01:46:53;12.30;;;4.75;;
75912;SDS011;64592;52.168;21.040;2024-02-21T01:51:55;11.93;;;3.67;;
75912;SDS011;64592;52.168;21.040;2024-02-21T01:56:58;12.40;;;4.18;;
75912;SDS011;64592;52.168;21.040;2024-02-21T02:02:00;16.15;;;5.35;;
75912;SDS011;64592;52.168;21.040;2024-02-21T02:07:02;14.05;;;4.82;;
75912;SDS011;64592;52.168;21.040;2024-02-21T02:12:08;9.93;;;4.30;;
75912;SDS011;64592;52.168;21.040;2024-02-21T02:17:10;13.07;;;4.57;;
75912;SDS011;64592;52.168;21.040;2024-02-21T02:22:13;10.02;;;4.43;;
75912;SDS011;64592;52.168;21.040;2024-02-21T02:27:24;10.90;;;4.40;;
75912;SDS011;64592;52.168;21.040;2024-02-21T02:32:26;13.70;;;5.32;;
75912;SDS011;64592;52.168;21.040;2024-02-21T02:37:28;10.20;;;4.85;;
75912;SDS011;64592;52.168;21.040;2024-02-21T02:42:31;17.70;;;6.90;;
75912;SDS011;64592;52.168;21.040;2024-02-21T02:47:32;14.88;;;4.82;;
75912;SDS011;64592;52.168;21.040;2024-02-21T02:52:35;10.85;;;5.47;;
75912;SDS011;64592;52.168;21.040;2024-02-21T02:57:38;14.88;;;5.95;;
75912;SDS011;64592;52.168;21.040;2024-02-21T03:02:42;14.63;;;6.45;;
75912;SDS011;64592;52.168;21.040;2024-02-21T03:07:44;14.75;;;6.53;;
75912;SDS011;64592;52.168;21.040;2024-02-21T03:12:48;15.48;;;6.32;;
75912;SDS011;64592;52.168;21.040;2024-02-21T03:17:52;18.58;;;7.55;;
75912;SDS011;64592;52.168;21.040;2024-02-21T03:22:54;21.42;;;6.72;;
75912;SDS011;64592;52.168;21.040;2024-02-21T03:27:57;17.65;;;6.20;;
75912;SDS011;64592;52.168;21.040;2024-02-21T03:32:59;21.10;;;6.80;;
75912;SDS011;64592;52.168;21.040;2024-02-21T03:38:01;18.33;;;6.70;;
75912;SDS011;64592;52.168;21.040;2024-02-21T03:43:04;18.48;;;6.65;;
75912;SDS011;64592;52.168;21.040;2024-02-21T03:48:06;16.80;;;6.70;;
75912;SDS011;64592;52.168;21.040;2024-02-21T03:53:08;12.60;;;5.70;;
75912;SDS011;64592;52.168;21.040;2024-02-21T03:58:11;18.45;;;6.65;;
75912;SDS011;64592;52.168;21.040;2024-02-21T04:03:13;17.27;;;7.22;;
75912;SDS011;64592;52.168;21.040;2024-02-21T04:08:14;17.52;;;6.70;;
75912;SDS011;64592;52.168;21.040;2024-02-21T04:13:17;22.05;;;7.25;;
75912;SDS011;64592;52.168;21.040;2024-02-21T04:18:19;16.23;;;7.25;;
75912;SDS011;64592;52.168;21.040;2024-02-21T04:23:21;24.77;;;6.65;;
75912;SDS011;64592;52.168;21.040;2024-02-21T04:28:25;13.27;;;6.45;;
75912;SDS011;64592;52.168;21.040;2024-02-21T04:33:26;15.98;;;6.18;;
75912;SDS011;64592;52.168;21.040;2024-02-21T04:38:28;11.63;;;5.82;;
75912;SDS011;64592;52.168;21.040;2024-02-21T04:43:31;12.43;;;6.40;;
75912;SDS011;64592;52.168;21.040;2024-02-21T04:48:33;11.70;;;5.68;;
75912;SDS011;64592;52.168;21.040;2024-02-21T04:53:34;14.43;;;5.68;;
75912;SDS011;64592;52.168;21.040;2024-02-21T04:58:38;14.32;;;6.22;;
75912;SDS011;64592;52.168;21.040;2024-02-21T05:03:40;11.10;;;4.88;;
75912;SDS011;64592;52.168;21.040;2024-02-21T05:08:42;17.20;;;5.85;;
75912;SDS011;64592;52.168;21.040;2024-02-21T05:13:45;12.95;;;6.22;;
75912;SDS011;64592;52.168;21.040;2024-02-21T05:18:46;18.10;;;6.70;;
75912;SDS011;64592;52.168;21.040;2024-02-21T05:23:48;11.35;;;5.68;;
75912;SDS011;64592;52.168;21.040;2024-02-21T05:28:51;14.75;;;5.07;;
75912;SDS011;64592;52.168;21.040;2024-02-21T05:33:53;8.63;;;4.65;;
75912;SDS011;64592;52.168;21.040;2024-02-21T05:38:55;11.95;;;5.82;;
75912;SDS011;64592;52.168;21.040;2024-02-21T05:43:59;19.02;;;5.85;;
75912;SDS011;64592;52.168;21.040;2024-02-21T05:49:00;14.30;;;5.68;;
75912;SDS011;64592;52.168;21.040;2024-02-21T05:54:02;15.60;;;6.90;;
75912;SDS011;64592;52.168;21.040;2024-02-21T05:59:05;18.33;;;6.78;;
75912;SDS011;64592;52.168;21.040;2024-02-21T06:04:07;13.23;;;7.03;;
75912;SDS011;64592;52.168;21.040;2024-02-21T06:09:08;16.88;;;6.85;;
75912;SDS011;64592;52.168;21.040;2024-02-21T06:14:11;15.88;;;6.95;;
75912;SDS011;64592;52.168;21.040;2024-02-21T06:19:13;15.35;;;7.53;;
75912;SDS011;64592;52.168;21.040;2024-02-21T06:24:15;16.33;;;7.22;;
75912;SDS011;64592;52.168;21.040;2024-02-21T06:29:18;19.33;;;9.27;;
75912;SDS011;64592;52.168;21.040;2024-02-21T06:34:20;17.20;;;7.60;;
75912;SDS011;64592;52.168;21.040;2024-02-21T06:39:21;15.40;;;7.80;;
75912;SDS011;64592;52.168;21.040;2024-02-21T06:44:25;26.70;;;8.38;;
75912;SDS011;64592;52.168;21.040;2024-02-21T06:49:28;21.55;;;9.10;;
75912;SDS011;64592;52.168;21.040;2024-02-21T06:54:30;21.23;;;8.95;;
75912;SDS011;64592;52.168;21.040;2024-02-21T06:59:33;18.98;;;9.55;;
75912;SDS011;64592;52.168;21.040;2024-02-21T07:04:35;21.58;;;9.20;;
75912;SDS011;64592;52.168;21.040;2024-02-21T07:09:36;23.63;;;9.82;;
75912;SDS011;64592;52.168;21.040;2024-02-21T07:14:39;22.40;;;9.02;;
75912;SDS011;64592;52.168;21.040;2024-02-21T07:19:42;19.90;;;8.65;;
75912;SDS011;64592;52.168;21.040;2024-02-21T07:24:44;24.75;;;9.23;;
75912;SDS011;64592;52.168;21.040;2024-02-21T07:29:50;18.58;;;8.32;;
75912;SDS011;64592;52.168;21.040;2024-02-21T07:34:51;25.35;;;9.93;;
75912;SDS011;64592;52.168;21.040;2024-02-21T07:39:53;22.10;;;10.30;;
75912;SDS011;64592;52.168;21.040;2024-02-21T07:44:56;25.20;;;9.32;;
75912;SDS011;64592;52.168;21.040;2024-02-21T07:49:58;28.60;;;11.43;;
75912;SDS011;64592;52.168;21.040;2024-02-21T07:54:59;25.13;;;11.02;;
75912;SDS011;64592;52.168;21.040;2024-02-21T08:00:02;30.25;;;11.30;;
75912;SDS011;64592;52.168;21.040;2024-02-21T08:05:05;26.35;;;10.73;;
75912;SDS011;64592;52.168;21.040;2024-02-21T08:10:07;27.85;;;12.52;;
75912;SDS011;64592;52.168;21.040;2024-02-21T08:15:10;34.47;;;11.80;;
75912;SDS011;64592;52.168;21.040;2024-02-21T08:20:12;27.10;;;11.32;;
75912;SDS011;64592;52.168;21.040;2024-02-21T08:25:14;32.80;;;11.68;;
75912;SDS011;64592;52.168;21.040;2024-02-21T08:30:17;26.33;;;10.18;;
75912;SDS011;64592;52.168;21.040;2024-02-21T08:35:20;19.23;;;9.43;;
75912;SDS011;64592;52.168;21.040;2024-02-21T08:40:23;21.60;;;9.32;;
75912;SDS011;64592;52.168;21.040;2024-02-21T08:45:27;29.77;;;10.65;;
75912;SDS011;64592;52.168;21.040;2024-02-21T08:50:29;18.98;;;9.73;;
75912;SDS011;64592;52.168;21.040;2024-02-21T08:55:31;24.77;;;10.63;;
75912;SDS011;64592;52.168;21.040;2024-02-21T09:00:34;20.10;;;9.48;;
75912;SDS011;64592;52.168;21.040;2024-02-21T09:05:35;24.40;;;10.60;;
75912;SDS011;64592;52.168;21.040;2024-02-21T09:10:37;17.38;;;7.78;;
75912;SDS011;64592;52.168;21.040;2024-02-21T09:15:42;22.65;;;9.13;;
75912;SDS011;64592;52.168;21.040;2024-02-21T09:20:44;19.88;;;8.85;;
75912;SDS011;64592;52.168;21.040;2024-02-21T09:25:47;22.15;;;8.55;;
75912;SDS011;64592;52.168;21.040;2024-02-21T09:30:51;22.92;;;7.40;;
75912;SDS011;64592;52.168;21.040;2024-02-21T09:35:53;20.50;;;7.95;;
75912;SDS011;64592;52.168;21.040;2024-02-21T09:40:56;19.48;;;7.38;;
75912;SDS011;64592;52.168;21.040;2024-02-21T09:46:02;14.60;;;6.28;;
75912;SDS011;64592;52.168;21.040;2024-02-21T09:51:04;15.52;;;5.95;;
75912;SDS011;64592;52.168;21.040;2024-02-21T09:56:08;13.85;;;6.72;;
75912;SDS011;64592;52.168;21.040;2024-02-21T10:01:11;17.20;;;6.05;;
75912;SDS011;64592;52.168;21.040;2024-02-21T10:06:13;16.92;;;7.22;;
75912;SDS011;64592;52.168;21.040;2024-02-21T10:11:21;12.75;;;5.40;;
75912;SDS011;64592;52.168;21.040;2024-02-21T10:16:26;16.15;;;5.95;;
75912;SDS011;64592;52.168;21.040;2024-02-21T10:21:28;9.30;;;3.78;;
75912;SDS011;64592;52.168;21.040;2024-02-21T10:26:29;14.30;;;5.95;;
75912;SDS011;64592;52.168;21.040;2024-02-21T10:31:32;12.93;;;6.13;;
75912;SDS011;64592;52.168;21.040;2024-02-21T10:36:34;11.77;;;5.72;;
75912;SDS011;64592;52.168;21.040;2024-02-21T10:41:36;12.20;;;5.68;;
75912;SDS011;64592;52.168;21.040;2024-02-21T10:46:41;19.35;;;6.00;;
75912;SDS011;64592;52.168;21.040;2024-02-21T10:51:44;17.02;;;8.38;;
75912;SDS011;64592;52.168;21.040;2024-02-21T10:56:47;17.33;;;6.85;;
75912;SDS011;64592;52.168;21.040;2024-02-21T11:01:53;12.70;;;6.32;;
75912;SDS011;64592;52.168;21.040;2024-02-21T11:06:54;24.30;;;8.43;;
75912;SDS011;64592;52.168;21.040;2024-02-21T11:11:57;20.42;;;8.68;;
75912;SDS011;64592;52.168;21.040;2024-02-21T11:17:02;21.73;;;8.43;;
75912;SDS011;64592;52.168;21.040;2024-02-21T11:22:04;17.63;;;6.88;;
75912;SDS011;64592;52.168;21.040;2024-02-21T11:27:18;14.57;;;7.57;;
75912;SDS011;64592;52.168;21.040;2024-02-21T11:32:22;16.98;;;8.02;;
75912;SDS011;64592;52.168;21.040;2024-02-21T11:37:24;17.13;;;10.32;;
75912;SDS011;64592;52.168;21.040;2024-02-21T11:42:27;21.55;;;9.60;;
75912;SDS011;64592;52.168;21.040;2024-02-21T11:47:31;20.05;;;9.32;;
75912;SDS011;64592;52.168;21.040;2024-02-21T11:52:32;24.00;;;10.15;;
75912;SDS011;64592;52.168;21.040;2024-02-21T11:57:34;19.05;;;7.57;;
75912;SDS011;64592;52.168;21.040;2024-02-21T12:02:42;21.17;;;8.55;;
75912;SDS011;64592;52.168;21.040;2024-02-21T12:07:45;23.63;;;10.57;;
75912;SDS011;64592;52.168;21.040;2024-02-21T12:12:47;26.10;;;11.57;;
75912;SDS011;64592;52.168;21.040;2024-02-21T12:17:52;20.48;;;9.13;;
75912;SDS011;64592;52.168;21.040;2024-02-21T12:22:53;22.30;;;10.63;;
75912;SDS011;64592;52.168;21.040;2024-02-21T12:27:55;18.92;;;9.52;;
75912;SDS011;64592;52.168;21.040;2024-02-21T12:32:59;16.30;;;9.20;;
75912;SDS011;64592;52.168;21.040;2024-02-21T12:38:02;20.45;;;9.30;;
75912;SDS011;64592;52.168;21.040;2024-02-21T12:43:04;28.58;;;9.82;;
75912;SDS011;64592;52.168;21.040;2024-02-21T12:48:07;21.13;;;10.65;;
75912;SDS011;64592;52.168;21.040;2024-02-21T12:53:09;23.10;;;11.32;;
75912;SDS011;64592;52.168;21.040;2024-02-21T12:58:10;27.58;;;11.10;;
75912;SDS011;64592;52.168;21.040;2024-02-21T13:03:15;19.83;;;11.13;;
75912;SDS011;64592;52.168;21.040;2024-02-21T13:08:17;26.08;;;11.85;;
75912;SDS011;64592;52.168;21.040;2024-02-21T13:13:21;22.40;;;11.63;;
75912;SDS011;64592;52.168;21.040;2024-02-21T13:18:24;22.52;;;9.45;;
75912;SDS011;64592;52.168;21.040;2024-02-21T13:23:26;24.67;;;10.75;;
75912;SDS011;64592;52.168;21.040;2024-02-21T13:28:28;19.95;;;10.13;;
75912;SDS011;64592;52.168;21.040;2024-02-21T13:33:31;19.83;;;9.50;;
75912;SDS011;64592;52.168;21.040;2024-02-21T13:38:32;24.20;;;9.45;;
75912;SDS011;64592;52.168;21.040;2024-02-21T13:43:34;18.27;;;8.05;;
75912;SDS011;64592;52.168;21.040;2024-02-21T13:48:37;18.75;;;9.50;;
75912;SDS011;64592;52.168;21.040;2024-02-21T13:53:39;24.20;;;10.15;;
75912;SDS011;64592;52.168;21.040;2024-02-21T13:58:40;26.35;;;9.88;;
75912;SDS011;64592;52.168;21.040;2024-02-21T14:03:43;18.83;;;8.43;;
75912;SDS011;64592;52.168;21.040;2024-02-21T14:08:45;20.63;;;9.85;;
75912;SDS011;64592;52.168;21.040;2024-02-21T14:13:47;16.98;;;8.55;;
75912;SDS011;64592;52.168;21.040;2024-02-21T14:18:50;19.98;;;9.23;;
75912;SDS011;64592;52.168;21.040;2024-02-21T14:23:51;12.27;;;7.55;;
75912;SDS011;64592;52.168;21.040;2024-02-21T14:28:53;18.35;;;8.20;;
75912;SDS011;64592;52.168;21.040;2024-02-21T14:33:58;19.10;;;8.50;;
75912;SDS011;64592;52.168;21.040;2024-02-21T14:39:00;17.10;;;6.82;;
75912;SDS011;64592;52.168;21.040;2024-02-21T14:44:01;16.52;;;7.80;;
75912;SDS011;64592;52.168;21.040;2024-02-21T14:49:05;14.45;;;7.63;;
75912;SDS011;64592;52.168;21.040;2024-02-21T14:54:06;13.45;;;7.53;;
75912;SDS011;64592;52.168;21.040;2024-02-21T14:59:08;23.95;;;8.77;;
75912;SDS011;64592;52.168;21.040;2024-02-21T15:04:11;18.85;;;7.53;;
75912;SDS011;64592;52.168;21.040;2024-02-21T15:09:13;17.48;;;7.90;;
75912;SDS011;64592;52.168;21.040;2024-02-21T15:14:15;19.88;;;8.18;;
75912;SDS011;64592;52.168;21.040;2024-02-21T15:19:18;15.73;;;7.68;;
75912;SDS011;64592;52.168;21.040;2024-02-21T15:24:19;15.32;;;7.90;;
75912;SDS011;64592;52.168;21.040;2024-02-21T15:29:21;27.58;;;8.40;;
75912;SDS011;64592;52.168;21.040;2024-02-21T15:34:25;14.80;;;7.90;;
75912;SDS011;64592;52.168;21.040;2024-02-21T15:39:27;13.27;;;7.13;;
75912;SDS011;64592;52.168;21.040;2024-02-21T15:44:28;15.63;;;6.75;;
75912;SDS011;64592;52.168;21.040;2024-02-21T15:49:31;14.65;;;6.68;;
75912;SDS011;64592;52.168;21.040;2024-02-21T15:54:33;15.85;;;6.38;;
75912;SDS011;64592;52.168;21.040;2024-02-21T15:59:36;13.88;;;6.45;;
75912;SDS011;64592;52.168;21.040;2024-02-21T16:04:40;13.18;;;5.03;;
75912;SDS011;64592;52.168;21.040;2024-02-21T16:09:42;12.25;;;4.90;;
75912;SDS011;64592;52.168;21.040;2024-02-21T16:14:46;17.33;;;6.50;;
75912;SDS011;64592;52.168;21.040;2024-02-21T16:19:50;15.07;;;6.55;;
75912;SDS011;64592;52.168;21.040;2024-02-21T16:24:51;14.68;;;6.70;;
75912;SDS011;64592;52.168;21.040;2024-02-21T16:29:54;9.45;;;5.47;;
75912;SDS011;64592;52.168;21.040;2024-02-21T16:34:57;15.80;;;7.78;;
75912;SDS011;64592;52.168;21.040;2024-02-21T16:40:00;18.55;;;6.55;;
75912;SDS011;64592;52.168;21.040;2024-02-21T16:45:02;15.27;;;6.65;;
75912;SDS011;64592;52.168;21.040;2024-02-21T16:50:07;15.82;;;6.00;;
75912;SDS011;64592;52.168;21.040;2024-02-21T16:55:09;16.75;;;7.38;;
75912;SDS011;64592;52.168;21.040;2024-02-21T17:00:11;14.98;;;7.43;;
75912;SDS011;64592;52.168;21.040;2024-02-21T17:05:15;7.63;;;4.72;;
75912;SDS011;64592;52.168;21.040;2024-02-21T17:10:18;19.08;;;7.03;;
75912;SDS011;64592;52.168;21.040;2024-02-21T17:15:20;13.60;;;6.78;;
75912;SDS011;64592;52.168;21.040;2024-02-21T17:20:23;16.80;;;7.43;;
75912;SDS011;64592;52.168;21.040;2024-02-21T17:25:25;16.20;;;7.88;;
75912;SDS011;64592;52.168;21.040;2024-02-21T17:30:26;9.68;;;5.40;;
75912;SDS011;64592;52.168;21.040;2024-02-21T17:35:29;9.63;;;5.13;;
75912;SDS011;64592;52.168;21.040;2024-02-21T17:40:33;13.98;;;6.55;;
75912;SDS011;64592;52.168;21.040;2024-02-21T17:45:35;15.80;;;7.18;;
75912;SDS011;64592;52.168;21.040;2024-02-21T17:50:40;15.98;;;8.15;;
75912;SDS011;64592;52.168;21.040;2024-02-21T17:55:43;13.68;;;6.20;;
75912;SDS011;64592;52.168;21.040;2024-02-21T18:00:44;11.13;;;5.07;;
75912;SDS011;64592;52.168;21.040;2024-02-21T18:05:48;9.15;;;5.82;;
75912;SDS011;64592;52.168;21.040;2024-02-21T18:10:49;11.07;;;6.45;;
75912;SDS011;64592;52.168;21.040;2024-02-21T18:15:52;12.57;;;6.50;;
75912;SDS011;64592;52.168;21.040;2024-02-21T18:20:55;11.98;;;5.65;;
75912;SDS011;64592;52.168;21.040;2024-02-21T18:25:56;14.20;;;6.13;;
75912;SDS011;64592;52.168;21.040;2024-02-21T18:30:59;11.20;;;5.22;;
75912;SDS011;64592;52.168;21.040;2024-02-21T18:36:02;9.50;;;5.28;;
75912;SDS011;64592;52.168;21.040;2024-02-21T18:41:04;17.90;;;8.15;;
75912;SDS011;64592;52.168;21.040;2024-02-21T18:46:08;14.88;;;7.22;;
75912;SDS011;64592;52.168;21.040;2024-02-21T18:51:11;15.35;;;8.77;;
75912;SDS011;64592;52.168;21.040;2024-02-21T18:56:13;14.82;;;8.20;;
75912;SDS011;64592;52.168;21.040;2024-02-21T19:01:15;20.25;;;7.82;;
75912;SDS011;64592;52.168;21.040;2024-02-21T19:06:21;15.32;;;7.07;;
75912;SDS011;64592;52.168;21.040;2024-02-21T19:11:23;16.92;;;9.55;;
75912;SDS011;64592;52.168;21.040;2024-02-21T19:16:25;17.92;;;8.93;;
75912;SDS011;64592;52.168;21.040;2024-02-21T19:21:30;13.55;;;7.72;;
75912;SDS011;64592;52.168;21.040;2024-02-21T19:26:32;14.77;;;7.25;;
75912;SDS011;64592;52.168;21.040;2024-02-21T19:31:34;18.55;;;9.38;;
75912;SDS011;64592;52.168;21.040;2024-02-21T19:36:37;11.32;;;6.53;;
75912;SDS011;64592;52.168;21.040;2024-02-21T19:41:39;18.00;;;9.50;;
75912;SDS011;64592;52.168;21.040;2024-02-21T19:46:41;12.85;;;7.28;;
75912;SDS011;64592;52.168;21.040;2024-02-21T19:51:44;17.38;;;9.20;;
75912;SDS011;64592;52.168;21.040;2024-02-21T19:56:47;19.67;;;9.40;;
75912;SDS011;64592;52.168;21.040;2024-02-21T20:01:49;14.63;;;8.38;;
75912;SDS011;64592;52.168;21.040;2024-02-21T20:06:54;17.60;;;8.80;;
75912;SDS011;64592;52.168;21.040;2024-02-21T20:11:55;18.35;;;8.75;;
75912;SDS011;64592;52.168;21.040;2024-02-21T20:16:58;21.40;;;9.50;;
75912;SDS011;64592;52.168;21.040;2024-02-21T20:22:01;14.02;;;8.35;;
75912;SDS011;64592;52.168;21.040;2024-02-21T20:27:03;19.17;;;10.40;;
75912;SDS011;64592;52.168;21.040;2024-02-21T20:32:05;24.92;;;10.77;;
75912;SDS011;64592;52.168;21.040;2024-02-21T20:37:09;16.17;;;8.98;;
75912;SDS011;64592;52.168;21.040;2024-02-21T20:42:11;18.45;;;8.65;;
75912;SDS011;64592;52.168;21.040;2024-02-21T20:47:13;17.65;;;8.98;;
75912;SDS011;64592;52.168;21.040;2024-02-21T20:52:16;16.67;;;8.43;;
75912;SDS011;64592;52.168;21.040;2024-02-21T20:57:18;22.05;;;9.88;;
75912;SDS011;64592;52.168;21.040;2024-02-21T21:02:19;20.40;;;10.23;;
75912;SDS011;64592;52.168;21.040;2024-02-21T21:07:22;20.08;;;9.13;;
75912;SDS011;64592;52.168;21.040;2024-02-21T21:12:24;18.83;;;8.88;;
75912;SDS011;64592;52.168;21.040;2024-02-21T21:17:26;17.58;;;10.02;;
75912;SDS011;64592;52.168;21.040;2024-02-21T21:22:29;18.02;;;10.07;;
75912;SDS011;64592;52.168;21.040;2024-02-21T21:27:31;23.58;;;9.63;;
75912;SDS011;64592;52.168;21.040;2024-02-21T21:32:32;17.67;;;8.70;;
75912;SDS011;64592;52.168;21.040;2024-02-21T21:37:35;24.73;;;10.82;;
75912;SDS011;64592;52.168;21.040;2024-02-21T21:42:37;21.33;;;10.45;;
75912;SDS011;64592;52.168;21.040;2024-02-21T21:47:39;19.73;;;9.50;;
75912;SDS011;64592;52.168;21.040;2024-02-21T21:52:43;18.48;;;9.10;;
75912;SDS011;64592;52.168;21.040;2024-02-21T21:57:44;21.75;;;10.10;;
75912;SDS011;64592;52.168;21.040;2024-02-21T22:02:46;18.60;;;9.60;;
75912;SDS011;64592;52.168;21.040;2024-02-21T22:07:49;22.40;;;10.18;;
75912;SDS011;64592;52.168;21.040;2024-02-21T22:12:51;20.25;;;11.68;;
75912;SDS011;64592;52.168;21.040;2024-02-21T22:17:52;17.15;;;9.18;;
75912;SDS011;64592;52.168;21.040;2024-02-21T22:22:56;25.95;;;11.30;;
75912;SDS011;64592;52.168;21.040;2024-02-21T22:27:57;18.67;;;10.18;;
75912;SDS011;64592;52.168;21.040;2024-02-21T22:32:59;21.30;;;10.00;;
75912;SDS011;64592;52.168;21.040;2024-02-21T22:38:03;27.63;;;11.55;;
75912;SDS011;64592;52.168;21.040;2024-02-21T22:43:04;22.83;;;11.00;;
75912;SDS011;64592;52.168;21.040;2024-02-21T22:48:06;21.17;;;11.13;;
75912;SDS011;64592;52.168;21.040;2024-02-21T22:53:09;22.67;;;10.38;;
75912;SDS011;64592;52.168;21.040;2024-02-21T22:58:11;27.02;;;10.68;;
75912;SDS011;64592;52.168;21.040;2024-02-21T23:03:13;18.33;;;11.63;;
75912;SDS011;64592;52.168;21.040;2024-02-21T23:08:16;21.95;;;11.20;;
75912;SDS011;64592;52.168;21.040;2024-02-21T23:13:18;21.67;;;10.32;;
75912;SDS011;64592;52.168;21.040;2024-02-21T23:18:20;24.23;;;10.40;;
75912;SDS011;64592;52.168;21.040;2024-02-21T23:23:23;21.83;;;10.00;;
75912;SDS011;64592;52.168;21.040;2024-02-21T23:28:24;21.23;;;9.65;;
75912;SDS011;64592;52.168;21.040;2024-02-21T23:33:26;22.83;;;10.45;;
75912;SDS011;64592;52.168;21.040;2024-02-21T23:38:35;20.80;;;11.10;;
75912;SDS011;64592;52.168;21.040;2024-02-21T23:43:39;16.58;;;8.95;;
75912;SDS011;64592;52.168;21.040;2024-02-21T23:48:41;19.75;;;10.32;;
75912;SDS011;64592;52.168;21.040;2024-02-21T23:53:44;19.85;;;9.45;;
75912;SDS011;64592;52.168;21.040;2024-02-21T23:58:46;22.67;;;10.07;;
